Time;durP1;ratioP1;P1;durP2;ratioP2;P2;SDS_P1;SDS_P2;PMS_P1;PMS_P2;Temp;Humidity;BMP_temperature;BMP_pressure;BME280_temperature;BME280_humidity;BME280_pressure;Samples;Min_cycle;Max_cycle;Signal;HPM_P1;HPM_P2
2022/09/24 00:00:49;;;;;;;10.03;8.03;;;12.10;1.00;;;;;;5037827;28;20281;-48
2022/09/24 00:03:14;;;;;;;11.27;8.33;;;12.00;1.00;;;;;;5049153;28;20433;-47
2022/09/24 00:05:40;;;;;;;13.03;8.30;;;12.00;1.00;;;;;;5044973;28;20448;-48
2022/09/24 00:08:07;;;;;;;9.63;7.37;;;12.00;11.00;;;;;;5048991;28;20656;-49
2022/09/24 00:10:41;;;;;;;12.23;8.07;;;12.00;72.60;;;;;;5046027;28;20199;-48
2022/09/24 00:13:08;;;;;;;14.73;8.30;;;12.00;78.80;;;;;;5053221;28;20452;-48
2022/09/24 00:15:44;;;;;;;10.90;8.63;;;12.00;99.90;;;;;;5052124;28;20809;-48
2022/09/24 00:18:10;;;;;;;10.07;8.23;;;12.00;99.90;;;;;;5051960;28;20502;-48
2022/09/24 00:20:37;;;;;;;11.07;8.43;;;11.90;99.90;;;;;;5052681;28;20456;-47
2022/09/24 00:23:03;;;;;;;10.93;8.50;;;11.90;99.90;;;;;;5052351;28;20486;-45
2022/09/24 00:28:13;;;;;;;11.93;8.20;;;11.90;99.90;;;;;;5049914;28;20560;-45
2022/09/24 00:30:41;;;;;;;8.77;7.30;;;11.90;99.90;;;;;;5051040;28;20515;-45
2022/09/24 00:33:07;;;;;;;11.03;8.97;;;11.80;99.90;;;;;;5051700;28;20467;-45
2022/09/24 00:35:34;;;;;;;14.13;9.73;;;11.80;1.00;;;;;;5051772;28;20448;-52
2022/09/24 00:38:00;;;;;;;11.53;8.33;;;11.80;1.00;;;;;;5050464;28;20198;-44
2022/09/24 00:40:30;;;;;;;13.80;8.80;;;11.80;1.00;;;;;;5052784;28;21036;-45
2022/09/24 00:42:55;;;;;;;12.07;8.90;;;11.80;1.00;;;;;;5051719;28;20575;-45
2022/09/24 00:45:23;;;;;;;13.37;9.20;;;11.80;1.00;;;;;;5052312;28;21014;-45
2022/09/24 00:47:49;;;;;;;14.33;10.20;;;11.80;1.00;;;;;;5050563;28;20264;-45
2022/09/24 00:50:31;;;;;;;12.60;9.57;;;11.80;1.00;;;;;;5052708;28;20401;-44
2022/09/24 00:53:11;;;;;;;10.80;9.50;;;11.80;1.00;;;;;;5033320;28;20406;-45
2022/09/24 00:55:38;;;;;;;14.63;10.87;;;11.90;1.00;;;;;;5033606;28;20445;-44
2022/09/24 00:58:07;;;;;;;12.67;10.20;;;11.90;1.00;;;;;;5052145;28;20409;-45
2022/09/24 01:00:36;;;;;;;11.33;10.13;;;11.90;99.90;;;;;;5047312;28;20863;-44
2022/09/24 01:03:09;;;;;;;14.57;10.30;;;11.90;99.90;;;;;;5052232;28;20436;-45
2022/09/24 01:05:37;;;;;;;10.70;9.53;;;12.00;99.90;;;;;;5051410;28;20496;-44
2022/09/24 01:08:05;;;;;;;13.10;9.87;;;12.00;99.90;;;;;;5052468;28;20834;-45
2022/09/24 01:11:16;;;;;;;12.17;9.73;;;12.00;99.90;;;;;;5049468;28;20491;-45
2022/09/24 01:14:13;;;;;;;10.90;9.40;;;12.00;38.30;;;;;;5023336;28;21119;-45
2022/09/24 01:16:46;;;;;;;12.50;10.17;;;12.00;1.00;;;;;;5033307;28;20441;-44
2022/09/24 01:19:23;;;;;;;11.03;9.40;;;12.00;1.00;;;;;;5051577;28;20512;-45
2022/09/24 01:22:07;;;;;;;14.93;11.70;;;12.10;1.00;;;;;;5049493;28;20486;-45
2022/09/24 01:25:06;;;;;;;17.80;11.40;;;12.10;1.00;;;;;;5051726;28;20545;-45
2022/09/24 01:27:55;;;;;;;14.27;10.70;;;12.10;1.00;;;;;;5050168;28;20526;-45
2022/09/24 01:30:21;;;;;;;16.40;11.47;;;12.10;1.00;;;;;;5051903;28;21129;-45
2022/09/24 01:33:02;;;;;;;16.23;12.07;;;12.00;1.00;;;;;;5050730;28;20449;-45
2022/09/24 01:35:43;;;;;;;13.57;11.00;;;12.00;1.00;;;;;;5037963;28;20457;-45
2022/09/24 01:38:43;;;;;;;13.10;11.17;;;12.00;1.00;;;;;;5031837;28;20516;-44
2022/09/24 01:41:11;;;;;;;14.37;11.60;;;12.00;1.00;;;;;;5026543;28;20582;-44
2022/09/24 01:43:38;;;;;;;15.20;11.80;;;12.00;1.00;;;;;;5051751;28;20818;-45
2022/09/24 01:46:05;;;;;;;16.90;12.23;;;12.00;1.00;;;;;;5045574;28;20445;-45
2022/09/24 01:48:36;;;;;;;13.77;11.70;;;12.00;1.00;;;;;;5045641;28;20436;-44
2022/09/24 01:51:13;;;;;;;13.10;11.70;;;12.00;1.00;;;;;;5052708;28;20440;-45
2022/09/24 01:53:56;;;;;;;17.80;13.40;;;12.00;1.00;;;;;;5049531;28;20993;-45
2022/09/24 01:56:32;;;;;;;20.63;14.27;;;12.00;1.00;;;;;;5050217;28;20463;-45
2022/09/24 01:59:16;;;;;;;19.27;14.50;;;12.00;1.00;;;;;;5050453;28;20401;-54
2022/09/24 02:02:01;;;;;;;16.60;12.93;;;12.10;1.00;;;;;;5031414;28;20434;-44
2022/09/24 02:04:28;;;;;;;21.83;17.30;;;12.10;1.00;;;;;;5031396;28;20749;-45
2022/09/24 02:07:06;;;;;;;19.97;15.97;;;12.10;1.00;;;;;;5042807;28;20433;-45
2022/09/24 02:09:33;;;;;;;22.33;16.50;;;12.10;1.00;;;;;;5030876;28;20408;-45
2022/09/24 02:12:15;;;;;;;18.87;16.00;;;12.10;1.00;;;;;;5049675;28;20498;-45
2022/09/24 02:15:07;;;;;;;19.80;15.13;;;12.20;1.00;;;;;;5050191;28;20514;-45
2022/09/24 02:17:36;;;;;;;20.13;14.70;;;12.20;1.00;;;;;;5030968;28;20402;-45
2022/09/24 02:20:07;;;;;;;18.80;15.80;;;12.20;1.00;;;;;;5033782;28;20445;-45
2022/09/24 02:22:33;;;;;;;21.03;16.60;;;12.20;1.00;;;;;;5050178;28;20506;-44
2022/09/24 02:25:02;;;;;;;24.00;17.40;;;12.20;1.00;;;;;;5046959;28;22210;-44
2022/09/24 02:27:28;;;;;;;23.63;16.50;;;12.20;1.00;;;;;;5049253;28;20486;-45
2022/09/24 02:29:58;;;;;;;21.63;15.97;;;12.20;1.00;;;;;;5042564;28;20445;-45
2022/09/24 02:32:28;;;;;;;22.27;16.00;;;12.20;1.00;;;;;;5049838;28;20693;-45
2022/09/24 02:35:01;;;;;;;25.60;16.33;;;12.20;1.00;;;;;;5042495;28;20576;-44
2022/09/24 02:37:28;;;;;;;24.67;16.40;;;12.20;1.00;;;;;;5029769;28;20530;-45
2022/09/24 02:39:54;;;;;;;22.27;16.00;;;12.20;1.00;;;;;;5030936;28;20406;-45
2022/09/24 02:42:21;;;;;;;16.63;14.10;;;12.20;1.00;;;;;;5030425;28;20453;-45
2022/09/24 02:44:46;;;;;;;22.90;17.43;;;12.10;1.00;;;;;;5030767;28;20425;-44
2022/09/24 02:47:12;;;;;;;23.70;17.23;;;12.10;1.00;;;;;;5040281;28;20459;-45
2022/09/24 02:49:38;;;;;;;21.97;16.97;;;12.20;1.00;;;;;;5054278;28;20201;-44
2022/09/24 02:52:03;;;;;;;22.63;16.80;;;12.20;1.00;;;;;;5049884;28;20202;-45
2022/09/24 02:54:30;;;;;;;27.10;19.87;;;12.10;1.00;;;;;;5050280;28;20206;-44
2022/09/24 02:56:55;;;;;;;25.90;19.60;;;12.20;1.00;;;;;;5042541;28;20199;-45
2022/09/24 02:59:21;;;;;;;29.17;20.17;;;12.20;22.90;;;;;;5030381;28;20808;-44
2022/09/24 03:01:47;;;;;;;25.57;19.10;;;12.10;23.40;;;;;;5039116;28;20555;-44
2022/09/24 03:04:14;;;;;;;28.13;19.50;;;12.10;20.10;;;;;;5036991;28;20198;-44
2022/09/24 03:06:40;;;;;;;25.47;19.77;;;12.10;27.80;;;;;;5050159;28;20907;-44
2022/09/24 03:09:06;;;;;;;29.13;18.57;;;12.10;29.70;;;;;;5049823;28;20455;-44
2022/09/24 03:11:32;;;;;;;23.33;17.57;;;12.10;40.90;;;;;;5048602;28;20475;-44
2022/09/24 03:13:58;;;;;;;23.90;16.40;;;12.10;45.30;;;;;;5049689;28;20305;-44
2022/09/24 03:16:25;;;;;;;24.63;19.63;;;12.10;58.30;;;;;;5050650;28;20496;-44
2022/09/24 03:18:50;;;;;;;24.57;18.90;;;12.10;91.90;;;;;;5050013;28;20409;-44
2022/09/24 03:21:19;;;;;;;24.13;18.80;;;12.00;99.90;;;;;;5050447;28;20510;-45
2022/09/24 03:23:44;;;;;;;32.67;21.70;;;12.10;99.90;;;;;;5050428;28;20178;-44
2022/09/24 03:26:10;;;;;;;29.63;22.47;;;12.10;99.90;;;;;;5038096;28;20480;-47
2022/09/24 03:28:36;;;;;;;31.53;22.10;;;12.10;99.90;;;;;;5050285;28;20186;-49
2022/09/24 03:31:02;;;;;;;26.97;19.07;;;12.00;99.90;;;;;;5042470;28;20224;-47
2022/09/24 03:33:42;;;;;;;29.77;20.10;;;12.10;99.90;;;;;;5031507;28;20221;-48
2022/09/24 03:36:15;;;;;;;28.70;19.97;;;12.10;99.90;;;;;;5049149;28;20240;-48
2022/09/24 03:38:43;;;;;;;31.40;22.37;;;12.10;99.90;;;;;;5036566;28;20846;-48
2022/09/24 03:41:11;;;;;;;30.20;22.10;;;12.10;99.90;;;;;;5050318;28;20428;-47
2022/09/24 03:43:37;;;;;;;32.23;23.10;;;12.10;99.90;;;;;;5049028;28;20539;-48
2022/09/24 03:46:05;;;;;;;32.70;23.87;;;12.10;99.90;;;;;;5053711;28;20401;-49
2022/09/24 03:48:33;;;;;;;30.53;22.73;;;12.10;99.90;;;;;;5052654;28;20491;-48
2022/09/24 03:51:14;;;;;;;32.23;24.07;;;12.10;99.90;;;;;;5053953;28;20405;-48
2022/09/24 03:53:40;;;;;;;30.00;21.60;;;12.10;99.90;;;;;;5051139;28;20479;-48
2022/09/24 03:56:06;;;;;;;27.33;21.43;;;12.10;99.90;;;;;;5033998;28;20909;-48
2022/09/24 03:58:37;;;;;;;28.90;21.70;;;12.10;99.90;;;;;;5042193;28;20436;-48
2022/09/24 04:01:05;;;;;;;31.00;22.90;;;12.10;99.90;;;;;;5034573;28;20464;-47
2022/09/24 04:03:30;;;;;;;27.60;21.33;;;12.20;99.90;;;;;;5043884;28;20436;-48
2022/09/24 04:05:56;;;;;;;26.50;20.60;;;12.20;99.90;;;;;;5052422;28;20471;-48
2022/09/24 04:08:22;;;;;;;29.07;21.17;;;12.20;99.90;;;;;;5053701;28;20194;-50
2022/09/24 04:10:49;;;;;;;29.37;22.60;;;12.10;99.90;;;;;;5052544;28;20194;-48
2022/09/24 04:13:16;;;;;;;28.70;22.10;;;12.10;99.90;;;;;;5053320;28;20432;-48
2022/09/24 04:15:42;;;;;;;30.87;22.63;;;12.20;1.00;;;;;;5052310;28;20806;-48
2022/09/24 04:18:08;;;;;;;28.30;21.03;;;12.10;1.00;;;;;;5052033;28;20440;-47
2022/09/24 04:20:34;;;;;;;34.00;23.03;;;12.10;1.00;;;;;;5053536;28;20424;-48
2022/09/24 04:23:01;;;;;;;28.03;20.47;;;12.10;1.00;;;;;;5052628;28;20490;-48
2022/09/24 04:25:32;;;;;;;28.33;21.37;;;12.10;50.80;;;;;;5039566;28;20477;-48
2022/09/24 04:28:00;;;;;;;32.23;22.90;;;12.10;99.90;;;;;;5044473;28;20440;-48
2022/09/24 04:30:27;;;;;;;33.53;22.87;;;12.00;99.90;;;;;;5052844;28;20863;-48
2022/09/24 04:32:53;;;;;;;37.90;24.90;;;12.10;1.00;;;;;;5050842;28;20445;-50
2022/09/24 04:35:20;;;;;;;31.80;24.47;;;12.10;1.00;;;;;;5053086;28;20467;-48
2022/09/24 04:37:46;;;;;;;34.03;24.13;;;12.00;99.90;;;;;;5043879;28;20270;-48
2022/09/24 04:40:12;;;;;;;35.50;24.47;;;12.00;1.00;;;;;;5033120;28;20414;-48
2022/09/24 04:42:39;;;;;;;38.43;27.13;;;12.00;99.90;;;;;;5040231;28;20481;-51
2022/09/24 04:45:09;;;;;;;37.13;26.60;;;12.00;99.90;;;;;;5051932;28;20561;-48
2022/09/24 04:47:39;;;;;;;35.93;25.70;;;12.00;99.90;;;;;;5052152;28;20535;-47
2022/09/24 04:50:06;;;;;;;43.60;28.50;;;12.00;66.70;;;;;;5052927;28;20429;-48
2022/09/24 04:52:32;;;;;;;39.40;27.47;;;11.90;1.00;;;;;;5050978;28;20931;-48
2022/09/24 04:54:58;;;;;;;39.17;26.83;;;12.00;99.90;;;;;;5052830;28;20488;-48
2022/09/24 04:57:25;;;;;;;40.17;26.77;;;12.00;99.90;;;;;;5050445;28;20435;-48
2022/09/24 04:59:50;;;;;;;37.03;27.33;;;12.00;1.00;;;;;;5052883;28;20416;-48
2022/09/24 05:02:17;;;;;;;39.27;28.00;;;12.00;99.90;;;;;;5051962;28;20762;-48
2022/09/24 05:04:42;;;;;;;38.50;27.47;;;12.00;1.00;;;;;;5052669;28;20190;-47
2022/09/24 05:07:09;;;;;;;42.23;29.10;;;12.00;99.90;;;;;;5036693;28;20441;-48
2022/09/24 05:09:34;;;;;;;41.97;28.50;;;12.00;1.00;;;;;;5050835;28;20259;-48
2022/09/24 05:12:01;;;;;;;45.63;30.97;;;12.10;11.20;;;;;;5044803;28;20927;-48
2022/09/24 05:14:26;;;;;;;42.03;30.37;;;12.00;99.90;;;;;;5032589;28;20298;-48
2022/09/24 05:16:52;;;;;;;44.20;30.03;;;12.00;99.90;;;;;;5039046;28;20958;-47
2022/09/24 05:19:18;;;;;;;44.13;27.73;;;12.10;1.00;;;;;;5050174;28;20252;-48
2022/09/24 05:21:45;;;;;;;42.30;27.73;;;12.10;1.00;;;;;;5036370;28;20878;-48
2022/09/24 05:24:10;;;;;;;47.40;31.00;;;12.10;1.00;;;;;;5052733;28;20940;-48
2022/09/24 05:29:20;;;;;;;36.10;26.20;;;12.10;1.00;;;;;;5052239;28;20181;-48
2022/09/24 05:31:45;;;;;;;41.03;27.00;;;12.10;3.80;;;;;;5051238;28;20436;-48
2022/09/24 05:34:13;;;;;;;45.20;29.00;;;12.10;67.80;;;;;;5050162;28;20229;-48
2022/09/24 05:36:39;;;;;;;39.53;28.60;;;12.10;99.90;;;;;;5048105;28;20186;-48
2022/09/24 05:39:04;;;;;;;44.10;28.80;;;12.10;99.90;;;;;;5052287;28;20397;-47
2022/09/24 05:41:30;;;;;;;38.20;27.87;;;12.10;99.90;;;;;;5050364;28;20991;-47
2022/09/24 05:43:58;;;;;;;40.03;28.10;;;12.20;99.90;;;;;;5051945;28;20226;-48
2022/09/24 05:46:24;;;;;;;40.10;28.03;;;12.20;99.90;;;;;;5050486;28;20186;-45
2022/09/24 05:48:50;;;;;;;31.97;25.37;;;12.20;99.90;;;;;;5050235;28;20444;-45
2022/09/24 05:51:15;;;;;;;35.50;27.47;;;12.20;99.90;;;;;;5050361;28;20447;-45
2022/09/24 05:53:41;;;;;;;37.63;27.30;;;12.20;99.90;;;;;;5051295;28;20198;-45
2022/09/24 05:56:09;;;;;;;38.27;26.97;;;12.20;99.90;;;;;;5041395;28;20183;-45
2022/09/24 05:58:34;;;;;;;42.00;26.30;;;12.20;99.90;;;;;;5033886;28;20439;-45
2022/09/24 06:01:00;;;;;;;38.93;26.53;;;12.20;99.90;;;;;;5032583;28;20433;-53
2022/09/24 06:03:28;;;;;;;30.43;24.13;;;12.20;99.90;;;;;;5034369;28;20258;-46
2022/09/24 06:05:55;;;;;;;29.63;22.43;;;12.20;99.90;;;;;;5051355;28;20416;-46
2022/09/24 06:08:20;;;;;;;35.33;23.00;;;12.20;99.90;;;;;;5049954;28;20413;-46
2022/09/24 06:10:46;;;;;;;29.20;22.20;;;12.20;99.90;;;;;;5050306;28;20439;-46
2022/09/24 06:13:16;;;;;;;33.03;24.87;;;12.30;99.90;;;;;;5051201;28;20682;-46
2022/09/24 06:15:42;;;;;;;29.50;21.83;;;12.20;99.90;;;;;;5044887;28;20433;-45
2022/09/24 06:18:09;;;;;;;29.67;21.53;;;12.20;99.90;;;;;;5031436;28;20908;-45
2022/09/24 06:20:35;;;;;;;26.93;20.80;;;12.30;99.90;;;;;;5049088;28;20435;-46
2022/09/24 06:23:05;;;;;;;26.77;19.70;;;12.30;99.90;;;;;;5051333;28;20511;-52
2022/09/24 06:25:31;;;;;;;25.13;20.13;;;12.30;99.90;;;;;;5042047;28;20487;-46
2022/09/24 06:28:02;;;;;;;24.50;18.77;;;12.30;99.90;;;;;;5049803;28;20437;-45
2022/09/24 06:30:33;;;;;;;26.60;20.23;;;12.30;99.90;;;;;;5049773;28;20193;-45
2022/09/24 06:33:07;;;;;;;26.47;19.43;;;12.20;99.90;;;;;;5050229;28;20446;-46
2022/09/24 06:35:34;;;;;;;30.40;22.13;;;12.20;99.90;;;;;;5051035;28;20397;-45
2022/09/24 06:38:00;;;;;;;28.30;21.40;;;12.20;99.90;;;;;;5047242;28;20430;-45
2022/09/24 06:40:26;;;;;;;32.80;24.00;;;12.20;99.90;;;;;;5059372;28;20891;-46
2022/09/24 06:42:53;;;;;;;34.73;23.70;;;12.20;99.90;;;;;;5049674;28;20437;-45
2022/09/24 06:45:19;;;;;;;34.93;25.73;;;12.20;99.90;;;;;;5048190;28;20497;-45
2022/09/24 06:47:52;;;;;;;36.77;25.40;;;12.20;99.90;;;;;;5050141;28;20413;-45
2022/09/24 06:50:17;;;;;;;42.00;27.07;;;12.20;99.90;;;;;;5049907;28;20413;-46
2022/09/24 06:52:43;;;;;;;39.60;26.80;;;12.20;99.90;;;;;;5050538;28;21252;-45
2022/09/24 06:55:08;;;;;;;38.50;27.10;;;12.20;99.90;;;;;;5050311;28;20205;-46
2022/09/24 06:57:34;;;;;;;41.30;27.37;;;12.20;1.00;;;;;;5048987;28;20193;-46
2022/09/24 07:00:00;;;;;;;45.30;30.20;;;12.20;1.00;;;;;;5053778;28;20182;-45
2022/09/24 07:02:25;;;;;;;44.23;29.87;;;12.20;1.00;;;;;;5048778;28;20221;-45
2022/09/24 07:04:51;;;;;;;41.77;28.10;;;12.20;1.00;;;;;;5050620;28;20594;-45
2022/09/24 07:07:28;;;;;;;42.93;31.40;;;12.20;1.00;;;;;;5049389;28;20239;-45
2022/09/24 07:09:55;;;;;;;40.03;27.43;;;12.20;1.00;;;;;;5049421;28;20194;-45
2022/09/24 07:12:22;;;;;;;44.47;28.77;;;12.20;1.00;;;;;;5044192;28;20440;-45
2022/09/24 07:14:48;;;;;;;42.33;28.07;;;12.20;1.00;;;;;;5058643;28;21417;-45
2022/09/24 07:17:14;;;;;;;48.67;30.13;;;12.20;1.00;;;;;;5050185;28;20500;-45
2022/09/24 07:19:40;;;;;;;38.57;25.87;;;12.20;1.00;;;;;;5041213;28;20998;-45
2022/09/24 07:22:05;;;;;;;45.80;29.50;;;12.20;1.00;;;;;;5041158;28;20218;-46
2022/09/24 07:24:31;;;;;;;39.07;27.67;;;12.20;1.00;;;;;;5059300;28;20479;-45
2022/09/24 07:26:57;;;;;;;43.30;27.10;;;12.20;1.00;;;;;;5074484;28;20199;-45
2022/09/24 07:29:22;;;;;;;43.53;26.90;;;12.20;1.00;;;;;;5043805;28;20251;-45
2022/09/24 07:31:48;;;;;;;39.77;25.90;;;12.20;1.00;;;;;;5055246;28;20659;-45
2022/09/24 07:34:13;;;;;;;42.20;27.63;;;12.20;1.00;;;;;;5043362;28;20645;-46
2022/09/24 07:36:44;;;;;;;39.50;25.60;;;12.20;1.00;;;;;;5039539;28;20192;-48
2022/09/24 07:39:09;;;;;;;41.57;26.20;;;12.30;1.00;;;;;;5036741;28;20183;-48
2022/09/24 07:41:35;;;;;;;38.10;26.37;;;12.20;1.00;;;;;;5051636;28;20412;-48
2022/09/24 07:44:01;;;;;;;38.63;26.53;;;12.20;1.00;;;;;;5049364;28;20191;-48
2022/09/24 07:46:26;;;;;;;49.00;28.20;;;12.20;1.00;;;;;;5053074;28;20175;-48
2022/09/24 07:48:55;;;;;;;37.27;26.27;;;12.20;1.00;;;;;;5033992;28;20230;-48
2022/09/24 07:51:21;;;;;;;44.90;28.37;;;12.30;1.00;;;;;;5048587;28;20529;-48
2022/09/24 07:53:47;;;;;;;42.10;27.23;;;12.30;1.00;;;;;;5052908;28;20475;-48
2022/09/24 07:56:13;;;;;;;45.03;29.30;;;12.30;1.00;;;;;;5049902;28;20801;-49
2022/09/24 07:58:39;;;;;;;43.97;27.77;;;12.30;1.00;;;;;;5060087;28;20449;-48
2022/09/24 08:01:05;;;;;;;40.00;27.87;;;12.40;1.00;;;;;;5048797;28;20702;-48
2022/09/24 08:03:31;;;;;;;38.90;27.20;;;12.40;1.00;;;;;;5043591;28;20594;-47
2022/09/24 08:05:58;;;;;;;42.40;27.40;;;12.40;1.00;;;;;;5041530;28;20209;-48
2022/09/24 08:08:24;;;;;;;43.13;28.50;;;12.40;1.00;;;;;;5043956;28;20440;-48
2022/09/24 08:10:50;;;;;;;41.43;27.10;;;12.40;1.00;;;;;;5036449;28;20445;-49
2022/09/24 08:13:15;;;;;;;43.90;28.30;;;12.40;1.00;;;;;;5043813;28;20651;-48
2022/09/24 08:15:41;;;;;;;42.93;27.40;;;12.50;1.00;;;;;;5040258;28;20183;-49
2022/09/24 08:18:07;;;;;;;43.43;28.30;;;12.60;1.00;;;;;;5036740;28;20190;-48
2022/09/24 08:20:34;;;;;;;38.63;26.37;;;12.60;1.00;;;;;;5051377;28;20297;-46
2022/09/24 08:23:04;;;;;;;39.40;26.67;;;12.60;1.00;;;;;;5052338;28;20436;-46
2022/09/24 08:25:30;;;;;;;40.67;25.70;;;12.70;1.00;;;;;;5049455;28;20482;-48
2022/09/24 08:28:03;;;;;;;38.10;24.40;;;12.70;1.00;;;;;;5047132;28;20456;-49
2022/09/24 08:30:30;;;;;;;38.53;26.90;;;12.80;1.00;;;;;;5033238;28;20190;-47
2022/09/24 08:32:56;;;;;;;41.87;25.70;;;12.80;1.00;;;;;;5048189;28;20515;-48
2022/09/24 08:35:22;;;;;;;37.40;26.10;;;12.90;1.00;;;;;;5050565;28;20448;-48
2022/09/24 08:37:48;;;;;;;39.20;26.70;;;12.90;1.00;;;;;;5048601;28;20508;-51
2022/09/24 08:40:18;;;;;;;42.20;27.73;;;13.00;1.00;;;;;;5046745;28;20856;-56
2022/09/24 08:42:49;;;;;;;34.40;24.13;;;13.00;1.00;;;;;;5034970;28;20598;-49
2022/09/24 08:48:05;;;;;;;37.00;25.30;;;13.10;1.00;;;;;;5039914;28;20448;-46
2022/09/24 08:50:34;;;;;;;32.87;24.20;;;13.20;1.00;;;;;;5041047;28;20457;-47
2022/09/24 08:53:32;;;;;;;42.57;26.33;;;13.20;1.00;;;;;;5049872;28;20429;-47
2022/09/24 08:55:59;;;;;;;36.97;24.80;;;13.30;1.00;;;;;;5041495;28;20432;-47
2022/09/24 08:58:36;;;;;;;34.53;23.80;;;13.30;1.00;;;;;;5028922;28;20444;-47
2022/09/24 09:01:11;;;;;;;30.93;23.90;;;13.40;1.00;;;;;;5026476;28;20444;-47
2022/09/24 09:03:57;;;;;;;31.43;23.30;;;13.30;99.90;;;;;;5026680;28;20443;-47
2022/09/24 09:06:37;;;;;;;36.90;24.13;;;13.20;99.90;;;;;;5027731;28;21018;-46
2022/09/24 09:09:18;;;;;;;32.33;23.00;;;13.10;99.90;;;;;;5026124;28;20933;-46
2022/09/24 09:11:47;;;;;;;38.57;25.47;;;13.20;99.90;;;;;;5027353;28;20439;-46
2022/09/24 09:14:49;;;;;;;36.23;24.93;;;13.20;99.90;;;;;;5038069;28;20465;-47
2022/09/24 09:17:30;;;;;;;34.50;23.90;;;13.20;99.90;;;;;;5040409;28;20561;-47
2022/09/24 09:20:00;;;;;;;32.20;22.47;;;13.20;99.90;;;;;;5039942;28;20432;-47
2022/09/24 09:22:30;;;;;;;37.10;25.30;;;13.20;99.90;;;;;;5036092;28;20448;-49
2022/09/24 09:25:17;;;;;;;35.47;24.27;;;13.20;99.90;;;;;;5040569;28;20571;-47
2022/09/24 09:27:43;;;;;;;36.20;24.30;;;13.10;99.90;;;;;;5031448;28;20538;-47
2022/09/24 09:30:20;;;;;;;37.60;25.17;;;13.10;99.90;;;;;;5038184;28;20578;-49
2022/09/24 09:33:02;;;;;;;38.60;25.53;;;13.10;99.90;;;;;;5031906;28;20846;-46
2022/09/24 09:36:08;;;;;;;38.30;25.07;;;13.00;99.90;;;;;;5043488;28;20476;-46
2022/09/24 09:39:13;;;;;;;38.47;25.93;;;13.00;99.90;;;;;;5029526;28;20441;-47
2022/09/24 09:41:49;;;;;;;36.33;26.50;;;13.10;99.90;;;;;;5029278;28;20454;-47
2022/09/24 09:44:25;;;;;;;35.60;25.50;;;13.10;99.90;;;;;;5028404;28;20442;-47
2022/09/24 09:47:17;;;;;;;48.00;28.27;;;13.10;99.90;;;;;;5028790;28;20433;-47
2022/09/24 09:49:46;;;;;;;41.60;27.37;;;13.10;99.90;;;;;;5027956;28;20463;-48
2022/09/24 09:52:19;;;;;;;42.70;27.90;;;13.20;99.90;;;;;;5039349;28;20443;-48
2022/09/24 09:54:46;;;;;;;47.93;29.30;;;13.20;99.90;;;;;;5031216;28;20462;-47
2022/09/24 09:57:24;;;;;;;49.10;29.90;;;13.20;99.90;;;;;;5039795;28;20424;-47
2022/09/24 09:59:54;;;;;;;46.03;29.07;;;13.30;99.90;;;;;;5030569;28;20439;-47
2022/09/24 10:02:32;;;;;;;50.83;32.90;;;13.30;1.00;;;;;;5030261;28;20552;-48
2022/09/24 10:05:00;;;;;;;46.57;31.90;;;13.40;1.00;;;;;;5034369;28;20441;-48
2022/09/24 10:07:26;;;;;;;48.67;31.37;;;13.40;1.00;;;;;;5033095;28;20463;-47
2022/09/24 10:10:16;;;;;;;48.00;31.47;;;13.50;1.00;;;;;;5032020;28;20449;-45
2022/09/24 10:12:42;;;;;;;48.53;31.43;;;13.50;99.90;;;;;;5042807;28;20447;-46
2022/09/24 10:15:26;;;;;;;54.00;32.50;;;13.50;99.90;;;;;;5051525;28;20476;-45
2022/09/24 10:17:54;;;;;;;52.63;32.30;;;13.50;99.90;;;;;;5051537;28;20174;-45
2022/09/24 10:20:26;;;;;;;52.37;33.50;;;13.50;99.90;;;;;;5038645;28;20800;-45
2022/09/24 10:23:01;;;;;;;45.47;30.57;;;13.60;99.90;;;;;;5033227;28;20441;-45
2022/09/24 10:25:29;;;;;;;48.93;31.60;;;13.60;99.90;;;;;;5037587;28;20479;-47
2022/09/24 10:30:53;;;;;;;43.13;27.80;;;13.80;99.90;;;;;;5042318;28;20505;-47
2022/09/24 10:33:19;;;;;;;50.87;31.40;;;13.80;99.90;;;;;;5063435;28;20468;-47
2022/09/24 10:35:45;;;;;;;44.47;30.87;;;13.80;99.90;;;;;;5041804;28;20445;-47
2022/09/24 10:38:17;;;;;;;47.57;31.57;;;13.80;99.90;;;;;;5048284;28;20413;-47
2022/09/24 10:40:43;;;;;;;45.50;30.43;;;13.90;99.90;;;;;;5030815;28;20195;-47
2022/09/24 10:43:20;;;;;;;46.57;31.67;;;13.80;99.90;;;;;;5032351;28;20473;-44
2022/09/24 10:46:27;;;;;;;55.83;34.40;;;13.80;99.90;;;;;;5049627;28;20194;-45
2022/09/24 10:48:58;;;;;;;54.83;34.60;;;13.80;99.90;;;;;;5042144;28;20559;-45
2022/09/24 10:51:50;;;;;;;51.70;32.63;;;13.70;99.90;;;;;;5039011;28;20464;-45
2022/09/24 10:54:49;;;;;;;47.03;31.70;;;13.70;99.90;;;;;;5040691;28;20514;-44
2022/09/24 10:57:38;;;;;;;54.40;32.83;;;13.70;99.90;;;;;;5040713;28;20957;-45
2022/09/24 11:00:33;;;;;;;50.90;33.20;;;13.70;99.90;;;;;;5031666;28;20478;-44
2022/09/24 11:03:23;;;;;;;52.47;33.60;;;13.70;99.90;;;;;;5042429;28;20562;-44
2022/09/24 11:05:57;;;;;;;52.20;33.00;;;13.70;99.90;;;;;;5034763;28;21326;-45
2022/09/24 11:08:49;;;;;;;48.70;31.97;;;13.70;99.90;;;;;;5038933;28;20433;-45
2022/09/24 11:11:41;;;;;;;57.10;35.27;;;13.60;99.90;;;;;;5036761;28;20460;-45
2022/09/24 11:14:28;;;;;;;55.17;33.97;;;13.60;99.90;;;;;;5039905;28;20488;-45
2022/09/24 11:17:18;;;;;;;54.37;35.33;;;13.60;99.90;;;;;;5049266;28;20494;-44
2022/09/24 11:19:46;;;;;;;54.50;34.57;;;13.60;99.90;;;;;;5041099;28;20452;-44
2022/09/24 11:22:16;;;;;;;57.07;34.90;;;13.60;99.90;;;;;;5034833;28;20507;-44
2022/09/24 11:25:00;;;;;;;51.27;33.87;;;13.60;99.90;;;;;;5044215;28;20931;-46
2022/09/24 11:28:02;;;;;;;55.90;35.00;;;13.70;1.00;;;;;;5050100;28;20756;-45
2022/09/24 11:30:39;;;;;;;53.27;33.63;;;13.70;99.90;;;;;;5041187;28;20447;-44
2022/09/24 11:33:31;;;;;;;60.03;36.23;;;13.70;1.00;;;;;;5041068;28;20425;-47
2022/09/24 11:36:06;;;;;;;56.20;36.10;;;13.70;1.00;;;;;;5042338;28;20897;-46
2022/09/24 11:38:31;;;;;;;64.03;37.20;;;13.80;1.00;;;;;;5049459;28;20455;-47
2022/09/24 11:41:21;;;;;;;68.83;39.37;;;13.80;1.00;;;;;;5037175;28;20468;-47
2022/09/24 11:44:00;;;;;;;55.97;34.37;;;13.80;1.00;;;;;;5037533;28;20178;-47
2022/09/24 11:46:36;;;;;;;54.07;35.40;;;13.80;1.00;;;;;;5044931;28;20821;-47
2022/09/24 11:49:39;;;;;;;58.17;35.43;;;13.80;99.90;;;;;;5046697;28;20952;-46
2022/09/24 11:52:12;;;;;;;51.77;35.23;;;13.70;99.90;;;;;;5031820;28;20425;-47
2022/09/24 11:55:01;;;;;;;64.37;36.97;;;13.80;99.90;;;;;;5031862;28;20468;-47
2022/09/24 11:57:29;;;;;;;55.53;35.30;;;13.70;99.90;;;;;;5035883;28;20448;-48
2022/09/24 12:00:20;;;;;;;57.23;38.03;;;13.70;99.90;;;;;;5048302;28;20413;-47
2022/09/24 12:02:56;;;;;;;56.47;36.43;;;13.80;99.90;;;;;;5031380;28;20414;-47
2022/09/24 12:05:34;;;;;;;56.10;35.23;;;13.80;99.90;;;;;;5047240;28;20448;-48
2022/09/24 12:08:30;;;;;;;60.20;36.73;;;13.90;99.90;;;;;;5045633;28;20453;-46
2022/09/24 12:11:17;;;;;;;56.60;36.37;;;14.00;99.90;;;;;;5044185;28;20429;-47
2022/09/24 12:13:51;;;;;;;50.30;33.83;;;14.10;99.90;;;;;;5043956;28;20563;-48
2022/09/24 12:16:20;;;;;;;52.47;34.03;;;14.10;99.90;;;;;;5040486;28;20491;-47
2022/09/24 12:18:58;;;;;;;54.07;35.40;;;14.10;99.90;;;;;;5052676;28;20486;-50
2022/09/24 12:21:33;;;;;;;48.73;35.00;;;14.10;99.90;;;;;;5032799;28;20945;-46
2022/09/24 12:24:03;;;;;;;53.97;33.70;;;14.10;99.90;;;;;;5039506;28;20441;-46
2022/09/24 12:26:33;;;;;;;57.13;36.57;;;14.20;99.90;;;;;;5038578;28;20989;-47
2022/09/24 12:35:21;;;;;;;52.97;33.20;;;14.00;99.90;;;;;;5032633;28;20528;-47
2022/09/24 12:37:51;;;;;;;52.60;36.20;;;14.00;99.90;;;;;;5047466;28;20420;-47
2022/09/24 12:40:42;;;;;;;54.20;34.30;;;14.00;99.90;;;;;;5041634;28;20434;-47
2022/09/24 12:43:28;;;;;;;61.10;36.10;;;14.00;99.90;;;;;;5047666;28;20421;-46
2022/09/24 12:46:00;;;;;;;61.90;36.47;;;14.00;99.90;;;;;;5037916;28;20552;-46
2022/09/24 12:48:29;;;;;;;55.50;36.07;;;14.00;99.90;;;;;;5066370;28;20468;-45
2022/09/24 12:51:00;;;;;;;53.97;35.27;;;14.00;99.90;;;;;;5047625;28;20934;-47
2022/09/24 12:53:39;;;;;;;48.73;33.77;;;14.00;99.90;;;;;;5042544;28;20480;-47
2022/09/24 12:56:06;;;;;;;53.87;35.83;;;14.00;99.90;;;;;;5049314;28;20479;-47
2022/09/24 12:58:36;;;;;;;52.43;33.60;;;14.00;99.90;;;;;;5040100;28;20504;-47
2022/09/24 13:01:11;;;;;;;54.90;34.60;;;14.10;99.90;;;;;;5040437;28;20527;-47
2022/09/24 13:03:39;;;;;;;45.60;29.97;;;14.10;99.90;;;;;;5048952;28;20432;-47
2022/09/24 13:06:31;;;;;;;49.00;32.80;;;14.10;99.90;;;;;;5048151;28;21094;-47
2022/09/24 13:08:56;;;;;;;51.27;33.03;;;14.10;99.90;;;;;;5040547;28;20420;-47
2022/09/24 13:11:29;;;;;;;52.10;32.53;;;14.00;99.90;;;;;;5035569;28;20440;-47
2022/09/24 13:14:21;;;;;;;54.03;35.53;;;14.10;99.90;;;;;;5050515;28;20313;-48